Flight Track Log - Related Links

Times and Time Zones

All times are in EDT time to prevent confusion due to time zone crossing. See the SWA1004 flight status page for this flight to view local times or setup timezone preferences in your user account.

Time Position Orientation Groundspeed Altitude Reporting Facility
EDT Latitude Longitude Course Direction KTS MPH feet Rate Location/Type
Fri 09:55:42 AM 39.1333 -76.6833 195° South 209 241 3,200  Level Potomac TRACON
Fri 09:56:42 AM 39.1833 -76.7333 322° Northwest 245 282 5,400 2,500 Climbing Potomac TRACON
Fri 09:57:42 AM 39.2000 -76.8167 284° West 240 276 8,200 2,900 Climbing Potomac TRACON
Fri 09:58:42 AM 39.2167 -76.9000 284° West 263 303 11,200 3,000 Climbing Potomac TRACON
Fri 09:59:42 AM 39.2167 -77.0000 270° West 271 312 14,200 2,950 Climbing Potomac TRACON
Fri 10:00:42 AM 39.2167 -77.1000 270° West 301 346 17,100 2,900 Climbing Potomac TRACON
Fri 10:01:42 AM 39.1667 -77.1833 232° Southwest 304 350 20,000 2,276 Climbing Potomac TRACON
Fri 10:03:36 AM 39.0878 -77.3700 241° Southwest 321 369 23,700 1,828 Climbing Washington Center
Fri 10:04:36 AM 39.0692 -77.4953 259° West 340 391 25,300 1,650 Climbing Washington Center
Fri 10:05:36 AM 39.0503 -77.6389 260° West 392 451 27,000 1,450 Climbing Washington Center
Fri 10:06:36 AM 39.0292 -77.7775 259° West 406 467 28,200 1,800 Climbing Washington Center
Fri 10:07:36 AM 39.0078 -77.9156 259° West 406 467 30,600 2,150 Climbing Washington Center
Fri 10:08:36 AM 38.9839 -78.0644 258° West 406 467 32,500 1,750 Climbing Washington Center
Fri 10:09:36 AM 38.9647 -78.1892 259° West 406 467 34,100 1,600 Climbing Washington Center
Fri 10:10:36 AM 38.9633 -78.3442 269° West 396 456 35,700 1,450 Climbing Washington Center
Fri 10:11:36 AM 38.9683 -78.4858 273° West 402 463 37,000 1,150 Climbing Washington Center
Fri 10:12:36 AM 38.9753 -78.6275 274° West 407 468 38,000 500 Climbing Washington Center
Fri 10:13:36 AM 38.9800 -78.7667 273° West 397 457 38,000  Level Washington Center
Fri 10:14:36 AM 38.9847 -78.8978 273° West 392 451 38,000  Level Washington Center
Fri 10:15:36 AM 39.0042 -79.0267 281° West 377 434 38,000  Level Washington Center
Fri 10:17:08 AM 39.0753 -79.2250 295° West 376 433 38,000  Level Cleveland Center
Fri 10:18:08 AM 39.1247 -79.3525 297° West 388 447 38,000  Level Cleveland Center
Fri 10:19:08 AM 39.1697 -79.4800 295° West 393 452 38,000  Level Cleveland Center
Fri 10:20:08 AM 39.2147 -79.6081 294° West 393 452 38,000  Level Cleveland Center
Fri 10:21:08 AM 39.2594 -79.7358 294° West 393 452 38,000  Level Cleveland Center
Fri 10:22:08 AM 39.3019 -79.8642 293° West 398 458 38,000  Level Cleveland Center
Fri 10:23:08 AM 39.3486 -79.9953 295° West 398 458 38,000  Level Cleveland Center
Fri 10:24:08 AM 39.3931 -80.1236 294° West 398 458 38,000  Level Cleveland Center
Fri 10:25:08 AM 39.4372 -80.2497 294° West 398 458 38,000  Level Cleveland Center
Fri 10:26:08 AM 39.4811 -80.3814 293° West 398 458 38,000  Level Cleveland Center
Fri 10:27:09 AM 39.5272 -80.5131 294° West 398 458 38,000  Level Cleveland Center
Fri 10:28:08 AM 39.5711 -80.6450 293° West 398 458 38,000  Level Cleveland Center
Fri 10:28:31 AM 39.5847 -80.6961 289° West 403 464 38,000  Level Indianapolis Center
Fri 10:29:33 AM 39.6294 -80.8283 294° West 401 461 38,000  Level Indianapolis Center
Fri 10:30:35 AM 39.6739 -80.9608 294° West 402 463 38,000  Level Indianapolis Center
Fri 10:31:37 AM 39.7175 -81.0936 293° West 401 461 38,000  Level Indianapolis Center
Fri 10:32:39 AM 39.7617 -81.2283 293° West 404 465 38,000  Level Indianapolis Center
Fri 10:33:41 AM 39.8067 -81.3625 294° West 405 466 38,000  Level Indianapolis Center
Fri 10:34:43 AM 39.8544 -81.5083 293° West 411 473 38,000  Level Indianapolis Center
Fri 10:35:45 AM 39.8989 -81.6464 293° West 409 471 38,000  Level Indianapolis Center
Fri 10:36:47 AM 39.9508 -81.8069 293° West 409 471 38,000  Level Indianapolis Center
Fri 10:37:48 AM 39.9956 -81.9444 293° West 410 472 38,000  Level Indianapolis Center
Fri 10:38:50 AM 40.0389 -82.0814 292° West 406 467 38,000  Level Indianapolis Center
Fri 10:39:52 AM 40.0831 -82.2178 293° West 404 465 38,000  Level Indianapolis Center
Fri 10:40:53 AM 40.1264 -82.3531 293° West 402 463 38,000  Level Indianapolis Center
Fri 10:41:55 AM 40.1689 -82.4867 293° West 399 459 38,000  Level Indianapolis Center
Fri 10:42:57 AM 40.2097 -82.6206 292° West 393 452 38,000  Level Indianapolis Center
Fri 10:43:59 AM 40.2572 -82.7706 293° West 398 458 38,000  Level Indianapolis Center
Fri 10:45:00 AM 40.3025 -82.9147 292° West 405 466 38,000  Level Indianapolis Center
Fri 10:46:02 AM 40.3431 -83.0494 292° West 398 458 38,000  Level Indianapolis Center
Fri 10:47:04 AM 40.3861 -83.1850 293° West 402 463 38,000  Level Indianapolis Center
Fri 10:48:06 AM 40.4286 -83.3242 292° West 408 470 38,000  Level Indianapolis Center
Fri 10:49:07 AM 40.4708 -83.4628 292° West 410 472 38,000 -439 Level Indianapolis Center
Fri 10:50:09 AM 40.5125 -83.6011 292° West 407 468 37,100 -871 Descending Indianapolis Center
Fri 10:51:11 AM 40.5542 -83.7400 292° West 407 468 36,200 -537 Descending Indianapolis Center
Fri 10:52:12 AM 40.6033 -83.9017 292° West 406 467 36,000 -195 Descending Indianapolis Center
Fri 10:53:14 AM 40.6447 -84.0414 291° West 407 468 35,800 -581 Descending Indianapolis Center
Fri 10:54:16 AM 40.6864 -84.1833 291° West 411 473 34,800 -919 Descending Indianapolis Center
Fri 10:55:18 AM 40.7289 -84.3208 292° West 406 467 33,900 -1,156 Descending Indianapolis Center
Fri 10:56:05 AM 40.7706 -84.4347 296° West 406 467 32,700 -1,486 Descending Chicago Center
Fri 10:57:07 AM 40.8342 -84.5586 304° West 408 470 31,200 -1,403 Descending Chicago Center
Fri 10:58:09 AM 40.8975 -84.6906 302° West 421 484 29,800 -1,366 Descending Chicago Center
Fri 10:59:10 AM 40.9614 -84.8239 302° West 427 491 28,400 -1,415 Descending Chicago Center
Fri 11:00:12 AM 41.0264 -84.9606 302° West 435 501 26,900 -1,452 Descending Chicago Center
Fri 11:01:14 AM 41.0903 -85.0975 302° West 438 504 25,400 -1,463 Descending Chicago Center
Fri 11:02:15 AM 41.1531 -85.2314 302° West 431 496 23,900 -1,512 Descending Chicago Center
Fri 11:03:17 AM 41.2161 -85.3631 303° West 424 488 22,300 -1,220 Descending Chicago Center
Fri 11:04:18 AM 41.2775 -85.4939 302° West 417 480 21,400 -1,024 Descending Chicago Center
Fri 11:05:20 AM 41.3292 -85.6608 292° West 405 466 20,200 -1,065 Descending Chicago Center
Fri 11:06:22 AM 41.3667 -85.8003 290° West 400 460 19,200 -1,171 Descending Chicago Center
Fri 11:07:23 AM 41.4028 -85.9386 289° West 396 456 17,800 -1,073 Descending Chicago Center
Fri 11:08:25 AM 41.4164 -86.0775 277° West 378 435 17,000 -780 Descending Chicago Center
Fri 11:09:26 AM 41.4300 -86.2156 278° West 376 433 16,200 -1,610 Descending Chicago Center
Fri 11:10:28 AM 41.4425 -86.3483 277° West 366 421 13,700 -2,419 Descending Chicago Center
Fri 11:11:30 AM 41.4542 -86.4739 277° West 350 403 11,200 -1,659 Descending Chicago Center
Fri 11:12:31 AM 41.4656 -86.5975 277° West 340 391 10,300 -585 Descending Chicago Center
Fri 11:13:33 AM 41.4792 -86.7411 277° West 331 381 10,000 -145 Descending Chicago Center
Fri 11:14:35 AM 41.4886 -86.8464 277° West 290 334 10,000 -390 Level Chicago Center
Fri 11:15:36 AM 41.4964 -86.9369 277° West 257 296 9,200 -1,122 Descending Chicago Center
Fri 11:16:38 AM 41.5056 -87.0306 277° West 254 292 7,700 -1,552 Descending Chicago Center
Fri 11:17:32 AM 41.5167 -87.1333 278° West 259 298 6,200 -895 Descending Chicago TRACON
Fri 11:18:32 AM 41.5167 -87.2167 270° West 237 273 6,000 -500 Descending Chicago TRACON
Fri 11:19:32 AM 41.5333 -87.3000 285° West 240 276 5,200 -1,000 Descending Chicago TRACON
Fri 11:20:32 AM 41.5667 -87.3833 298° West 241 277 4,000 -571 Descending Chicago TRACON
Fri 11:21:38 AM 41.6000 -87.4667 298° West 237 273 4,000  Level Chicago TRACON
Fri 11:22:33 AM 41.6333 -87.5333 304° West 232 267 4,000 -52 Level Chicago TRACON
Fri 11:23:33 AM 41.6667 -87.5833 312° West 201 231 3,900 -237 Descending Chicago TRACON
Fri 11:23:49 AM 41.6739 -87.6017 298° West 226 260 3,700 -1,100 Descending Chicago Center
Fri 11:24:33 AM 41.7000 -87.6500 306° West 195 224 2,800 -1,096 Descending Chicago TRACON
Fri 11:25:33 AM 41.7333 -87.6833 323° Northwest 156 180 1,800 -900 Descending Chicago TRACON
Fri 11:26:33 AM 41.7667 -87.7333 312° West 135 155 1,000 -800 Descending Chicago TRACON
Fri 11:28:00 AM 41.7833 -87.7500 334° Northwest  Level FlightAware
Fri 11:35:00 AM 41.7860 -87.7524 334° Northwest  Level Estimated

Login

Don't have an account? Register now (free) for customized features, flight alerts, and more!